createdAt,value
2023-03-13T00:01:46.114Z,21.10
2023-03-13T00:07:25.405Z,21.00
2023-03-13T00:12:49.009Z,17.50
2023-03-13T00:18:28.682Z,17.00
2023-03-13T00:23:35.994Z,17.50
2023-03-13T00:28:46.466Z,17.80
2023-03-13T00:34:26.647Z,18.20
2023-03-13T00:39:50.172Z,19.30
2023-03-13T00:44:53.611Z,13.10
2023-03-13T00:49:59.562Z,15.40
2023-03-13T00:55:13.103Z,12.80
2023-03-13T01:00:36.578Z,13.10
2023-03-13T01:05:40.296Z,11.20
2023-03-13T01:10:46.179Z,12.70
2023-03-13T01:15:49.512Z,14.40
2023-03-13T01:21:13.481Z,13.00
2023-03-13T01:26:21.985Z,11.30
2023-03-13T01:31:36.319Z,14.10
2023-03-13T01:36:43.914Z,12.20
2023-03-13T01:41:47.584Z,15.80
2023-03-13T01:47:00.146Z,15.20
2023-03-13T01:52:47.015Z,15.90
2023-03-13T01:58:21.090Z,16.70
2023-03-13T02:03:29.177Z,15.20
2023-03-13T02:08:59.090Z,20.00
2023-03-13T02:14:04.098Z,19.40
2023-03-13T02:20:29.171Z,18.30
2023-03-13T02:26:03.489Z,21.10
2023-03-13T02:31:11.088Z,19.60
2023-03-13T02:36:20.176Z,17.70
2023-03-13T02:41:45.329Z,17.00
2023-03-13T02:47:40.114Z,18.10
2023-03-13T02:53:09.034Z,20.50
2023-03-13T02:58:15.354Z,16.80
2023-03-13T03:03:29.113Z,18.30
2023-03-13T03:08:41.631Z,17.50
2023-03-13T03:14:06.790Z,19.00
2023-03-13T03:19:13.779Z,16.40
2023-03-13T03:24:17.412Z,18.50
2023-03-13T03:30:21.585Z,16.60
2023-03-13T03:35:38.758Z,20.80
2023-03-13T03:40:43.539Z,18.10
2023-03-13T03:46:36.355Z,18.50
2023-03-13T03:52:04.742Z,16.00
2023-03-13T03:57:13.943Z,18.00
2023-03-13T04:02:27.135Z,20.00
2023-03-13T04:07:30.926Z,16.60
2023-03-13T04:12:35.293Z,20.40
2023-03-13T04:18:01.406Z,18.30
2023-03-13T04:23:08.328Z,18.20
2023-03-13T04:28:34.301Z,18.10
2023-03-13T04:33:49.008Z,19.40
2023-03-13T04:39:12.423Z,18.10
2023-03-13T04:44:43.534Z,21.00
2023-03-13T04:50:55.032Z,23.50
2023-03-13T05:02:13.291Z,17.80
2023-03-13T05:12:59.242Z,19.90
2023-03-13T05:18:08.987Z,17.70
2023-03-13T05:23:29.296Z,17.30
2023-03-13T05:28:52.824Z,18.60
2023-03-13T05:34:14.802Z,19.50
2023-03-13T05:39:43.118Z,16.50
2023-03-13T05:45:25.857Z,16.80
2023-03-13T05:51:07.074Z,19.40
2023-03-13T05:56:30.623Z,21.00
2023-03-13T06:02:08.995Z,21.50
2023-03-13T06:07:15.220Z,21.20
2023-03-13T06:12:26.626Z,21.90
2023-03-13T06:17:40.099Z,22.60
2023-03-13T06:23:09.284Z,19.50
2023-03-13T06:28:33.214Z,20.70
2023-03-13T06:34:21.280Z,22.50
2023-03-13T06:39:24.764Z,20.80
2023-03-13T06:44:54.652Z,22.30
2023-03-13T06:50:31.915Z,20.90
2023-03-13T06:55:38.545Z,19.50
2023-03-13T07:01:14.444Z,16.10
2023-03-13T07:06:20.155Z,21.70
2023-03-13T07:11:26.570Z,17.20
2023-03-13T07:16:33.179Z,17.00
2023-03-13T07:21:47.753Z,18.10
2023-03-13T07:27:31.555Z,19.40
2023-03-13T07:38:04.154Z,16.00
2023-03-13T07:43:29.542Z,18.80
2023-03-13T07:48:41.701Z,18.30
2023-03-13T07:53:47.395Z,17.30
2023-03-13T07:58:51.731Z,16.80
2023-03-13T08:04:04.594Z,16.30
2023-03-13T08:09:28.127Z,15.70
2023-03-13T08:14:41.609Z,14.00
2023-03-13T08:19:54.237Z,16.60
2023-03-13T08:25:10.437Z,18.30
2023-03-13T08:30:14.558Z,17.70
2023-03-13T08:35:21.112Z,17.00
2023-03-13T08:40:27.008Z,16.60
2023-03-13T08:45:30.584Z,22.30
2023-03-13T08:50:43.595Z,12.60
2023-03-13T08:55:53.456Z,15.20
2023-03-13T09:01:06.244Z,13.30
2023-03-13T09:06:10.810Z,14.60
2023-03-13T09:11:17.047Z,14.10
2023-03-13T09:16:23.305Z,14.20
2023-03-13T09:21:35.131Z,13.20
2023-03-13T09:27:01.448Z,13.30
2023-03-13T09:32:05.267Z,13.90
2023-03-13T09:37:09.095Z,13.60
2023-03-13T09:42:20.182Z,11.40
2023-03-13T09:47:35.202Z,14.80
2023-03-13T09:52:41.971Z,12.30
2023-03-13T09:57:57.033Z,14.80
2023-03-13T10:03:24.290Z,15.40
2023-03-13T10:08:31.406Z,12.90
2023-03-13T10:13:39.278Z,15.90
2023-03-13T10:18:48.744Z,12.50
2023-03-13T10:23:57.716Z,12.40
2023-03-13T10:29:21.110Z,13.50
2023-03-13T10:34:45.497Z,13.50
2023-03-13T10:39:48.992Z,14.80
2023-03-13T10:45:06.793Z,9.50
2023-03-13T10:50:22.974Z,12.70
2023-03-13T10:55:27.065Z,15.40
2023-03-13T11:00:33.650Z,12.40
2023-03-13T11:05:45.065Z,10.30
2023-03-13T11:11:20.699Z,10.50
2023-03-13T11:16:29.478Z,10.60
2023-03-13T11:21:47.166Z,16.70
2023-03-13T11:27:04.567Z,15.00
2023-03-13T11:32:31.627Z,15.00
2023-03-13T11:37:37.734Z,14.70
2023-03-13T11:42:53.989Z,12.70
2023-03-13T11:48:04.518Z,12.00
2023-03-13T11:53:45.357Z,15.60
2023-03-13T12:04:49.885Z,12.50
2023-03-13T12:09:55.919Z,15.10
2023-03-13T12:15:18.986Z,14.10
2023-03-13T12:20:44.633Z,14.80
2023-03-13T12:26:16.464Z,13.70
2023-03-13T12:31:42.454Z,13.70
2023-03-13T12:36:45.616Z,14.70
2023-03-13T12:42:13.520Z,13.20
2023-03-13T12:47:29.380Z,14.20
2023-03-13T12:53:00.035Z,15.20
2023-03-13T12:58:12.269Z,12.10
2023-03-13T13:03:31.381Z,14.70
2023-03-13T13:08:46.583Z,17.60
2023-03-13T13:13:49.798Z,23.20
2023-03-13T13:18:53.265Z,24.20
2023-03-13T13:24:35.439Z,22.80
2023-03-13T13:29:38.697Z,22.40
2023-03-13T13:35:09.151Z,17.50
2023-03-13T13:40:18.213Z,15.20
2023-03-13T13:45:25.775Z,12.70
2023-03-13T13:50:29.821Z,16.50
2023-03-13T13:55:38.860Z,15.10
2023-03-13T14:00:53.002Z,11.70
2023-03-13T14:06:15.677Z,12.80
2023-03-13T14:11:34.291Z,10.70
2023-03-13T14:16:39.520Z,9.80
2023-03-13T14:21:42.776Z,13.60
2023-03-13T14:26:46.117Z,13.90
2023-03-13T14:31:58.084Z,14.30
2023-03-13T14:37:17.346Z,12.70
2023-03-13T14:42:22.838Z,11.90
2023-03-13T14:47:32.112Z,13.50
2023-03-13T14:52:35.580Z,12.30
2023-03-13T14:57:58.581Z,10.70
2023-03-13T15:08:24.808Z,11.80
2023-03-13T15:13:32.768Z,11.20
2023-03-13T15:18:36.292Z,9.50
2023-03-13T15:23:47.301Z,9.50
2023-03-13T15:28:51.551Z,10.80
2023-03-13T15:33:58.926Z,10.00
2023-03-13T15:39:02.376Z,10.70
2023-03-13T15:44:05.803Z,10.90
2023-03-13T15:49:13.083Z,9.10
2023-03-13T15:54:16.525Z,8.60
2023-03-13T15:59:19.825Z,12.00
2023-03-13T16:04:23.165Z,10.10
2023-03-13T16:09:26.958Z,9.20
2023-03-13T16:14:30.368Z,10.40
2023-03-13T16:19:33.730Z,12.10
2023-03-13T16:24:37.015Z,11.00
2023-03-13T16:29:40.483Z,8.20
2023-03-13T16:34:43.754Z,12.20
2023-03-13T16:39:48.514Z,9.60
2023-03-13T16:44:51.814Z,14.80
2023-03-13T16:49:55.540Z,12.50
2023-03-13T16:54:58.766Z,14.30
2023-03-13T17:00:03.806Z,11.70
2023-03-13T17:05:08.034Z,14.00
2023-03-13T17:10:19.480Z,13.80
2023-03-13T17:15:24.749Z,11.50
2023-03-13T17:20:29.980Z,11.50
2023-03-13T17:25:33.592Z,13.30
2023-03-13T17:30:36.886Z,12.20
2023-03-13T17:35:40.214Z,11.40
2023-03-13T17:40:43.758Z,11.40
2023-03-13T17:45:47.160Z,10.40
2023-03-13T17:50:50.399Z,12.30
2023-03-13T17:55:53.784Z,11.00
2023-03-13T18:00:57.413Z,10.00
2023-03-13T18:06:00.842Z,10.50
2023-03-13T18:11:04.229Z,13.10
2023-03-13T18:16:26.963Z,11.90
2023-03-13T18:21:30.571Z,11.60
2023-03-13T18:26:38.272Z,10.10
2023-03-13T18:31:43.794Z,10.30
2023-03-13T18:36:54.270Z,10.60
2023-03-13T18:42:00.359Z,10.20
2023-03-13T18:47:12.680Z,9.80
2023-03-13T18:52:17.406Z,10.20
2023-03-13T18:57:20.955Z,9.00
2023-03-13T19:02:24.658Z,8.90
2023-03-13T19:07:28.459Z,9.80
2023-03-13T19:12:32.013Z,10.00
2023-03-13T19:17:35.553Z,14.00
2023-03-13T19:22:38.866Z,9.40
2023-03-13T19:27:42.632Z,11.80
2023-03-13T19:33:48.165Z,13.60
2023-03-13T19:39:04.828Z,9.40
2023-03-13T19:44:12.021Z,9.40
2023-03-13T19:49:20.364Z,10.70
2023-03-13T19:54:24.483Z,9.80
2023-03-13T19:59:27.896Z,10.00
2023-03-13T20:04:31.466Z,10.80
2023-03-13T20:09:36.321Z,11.20
2023-03-13T20:14:40.724Z,9.30
2023-03-13T20:19:44.034Z,13.10
2023-03-13T20:24:47.729Z,10.70
2023-03-13T20:29:51.161Z,10.10
2023-03-13T20:34:54.419Z,10.30
2023-03-13T20:39:57.774Z,10.40
2023-03-13T20:45:01.331Z,10.70
2023-03-13T20:50:05.137Z,8.90
2023-03-13T20:55:09.167Z,11.00
2023-03-13T21:00:39.599Z,12.10
2023-03-13T21:05:49.312Z,10.90
2023-03-13T21:10:52.783Z,9.30
2023-03-13T21:16:02.714Z,10.20
2023-03-13T21:21:09.498Z,12.20
2023-03-13T21:26:13.943Z,14.10
2023-03-13T21:31:18.751Z,13.20
2023-03-13T21:36:22.759Z,9.60
2023-03-13T21:41:26.221Z,12.00
2023-03-13T21:46:33.429Z,10.50
2023-03-13T21:51:36.811Z,11.50
2023-03-13T21:56:40.034Z,12.30
2023-03-13T22:01:43.745Z,13.20
2023-03-13T22:06:47.059Z,13.20
2023-03-13T22:11:50.365Z,11.90
2023-03-13T22:16:53.785Z,11.90
2023-03-13T22:21:57.097Z,11.70
2023-03-13T22:27:00.296Z,12.90
2023-03-13T22:32:04.558Z,11.10
2023-03-13T22:37:07.741Z,13.30
2023-03-13T22:42:11.674Z,13.80
2023-03-13T22:47:15.046Z,10.30
2023-03-13T22:52:18.269Z,12.40
2023-03-13T22:57:22.061Z,16.20
2023-03-13T23:02:26.689Z,11.20
2023-03-13T23:07:30.698Z,11.30
2023-03-13T23:12:34.079Z,16.20
2023-03-13T23:17:39.343Z,13.70
2023-03-13T23:22:46.295Z,13.10
2023-03-13T23:27:50.332Z,12.10
2023-03-13T23:32:53.602Z,12.10
2023-03-13T23:37:57.103Z,13.20
2023-03-13T23:43:00.451Z,12.30
2023-03-13T23:48:03.895Z,13.60
2023-03-13T23:53:07.082Z,13.70
2023-03-13T23:58:10.208Z,13.50
